Time;durP1;ratioP1;P1;durP2;ratioP2;P2;SDS_P1;SDS_P2;PMS_P1;PMS_P2;Temp;Humidity;BMP_temperature;BMP_pressure;BME280_temperature;BME280_humidity;BME280_pressure;Samples;Min_cycle;Max_cycle;Signal;HPM_P1;HPM_P2
2022/07/24 00:02:28;;;;;;;10.63;9.73;;;24.20;84.80;;;;;;10483557;28;20193;-75
2022/07/24 00:07:30;;;;;;;11.00;10.20;;;24.10;85.30;;;;;;10473940;28;20244;-79
2022/07/24 00:12:33;;;;;;;10.83;10.03;;;24.10;85.90;;;;;;10488591;28;20751;-79
2022/07/24 00:17:36;;;;;;;11.60;10.70;;;24.00;84.60;;;;;;10479284;28;20259;-77
2022/07/24 00:22:38;;;;;;;11.33;10.53;;;24.00;84.60;;;;;;10485584;28;20652;-80
2022/07/24 00:27:40;;;;;;;12.27;11.23;;;24.00;86.10;;;;;;10489995;28;20228;-79
2022/07/24 00:32:44;;;;;;;10.53;9.70;;;24.00;85.80;;;;;;10491267;28;20213;-77
2022/07/24 00:37:47;;;;;;;11.83;10.93;;;24.00;86.70;;;;;;10477957;28;20258;-77
2022/07/24 00:42:49;;;;;;;10.80;10.00;;;24.00;86.00;;;;;;10473277;28;20207;-75
2022/07/24 00:47:53;;;;;;;11.50;10.60;;;23.90;85.40;;;;;;10489145;28;20212;-75
2022/07/24 00:52:56;;;;;;;11.73;10.83;;;23.90;86.70;;;;;;10490993;28;20238;-76
2022/07/24 00:57:58;;;;;;;11.57;10.63;;;23.90;86.80;;;;;;10512037;22;20198;-82
2022/07/24 01:03:02;;;;;;;11.30;10.50;;;23.90;86.90;;;;;;10447886;28;20201;-82
2022/07/24 01:08:05;;;;;;;10.33;9.63;;;23.80;86.40;;;;;;10455666;28;20255;-82
2022/07/24 01:13:07;;;;;;;10.50;9.50;;;23.80;85.40;;;;;;10424017;28;20233;-82
2022/07/24 01:18:10;;;;;;;10.30;9.60;;;23.80;85.20;;;;;;10423895;28;20373;-82
2022/07/24 01:23:14;;;;;;;9.80;9.10;;;23.80;85.60;;;;;;10442828;28;20545;-81
2022/07/24 01:28:16;;;;;;;10.17;9.53;;;23.70;84.60;;;;;;10445374;28;20439;-80
2022/07/24 01:33:18;;;;;;;9.57;8.90;;;23.70;85.50;;;;;;10448249;28;20217;-81
2022/07/24 01:38:22;;;;;;;10.37;9.70;;;23.70;85.80;;;;;;10433213;28;20655;-82
2022/07/24 01:43:24;;;;;;;10.47;9.50;;;23.60;84.70;;;;;;10436578;28;20204;-81
2022/07/24 01:48:26;;;;;;;10.17;9.27;;;23.60;85.80;;;;;;10421320;28;20244;-82
2022/07/24 01:53:29;;;;;;;10.27;9.47;;;23.60;85.90;;;;;;10454964;28;20217;-82
2022/07/24 01:58:31;;;;;;;9.47;8.80;;;23.60;86.40;;;;;;10426250;28;20232;-82
2022/07/24 02:03:34;;;;;;;10.57;9.77;;;23.50;85.90;;;;;;10424492;28;20648;-81
2022/07/24 02:08:37;;;;;;;10.50;9.70;;;23.50;86.00;;;;;;10418052;28;20276;-82
2022/07/24 02:13:39;;;;;;;9.63;8.93;;;23.40;86.10;;;;;;10434815;28;20257;-80
2022/07/24 02:18:41;;;;;;;8.67;8.17;;;23.40;86.30;;;;;;10462060;28;20316;-80
2022/07/24 02:23:45;;;;;;;9.40;8.70;;;23.30;84.30;;;;;;10469917;28;20208;-80
2022/07/24 02:28:47;;;;;;;9.83;9.03;;;23.30;86.00;;;;;;10428427;28;20573;-80
2022/07/24 02:33:49;;;;;;;10.43;9.63;;;23.20;84.90;;;;;;10462030;28;20693;-80
2022/07/24 02:38:52;;;;;;;10.50;9.80;;;23.20;85.70;;;;;;10452742;28;20279;-80
2022/07/24 02:43:54;;;;;;;10.13;9.33;;;23.10;86.40;;;;;;10458640;28;20198;-82
2022/07/24 02:48:56;;;;;;;10.30;9.50;;;23.00;86.70;;;;;;10461689;28;20736;-83
2022/07/24 02:54:00;;;;;;;10.73;9.93;;;23.00;86.50;;;;;;10470130;28;20213;-83
2022/07/24 02:59:02;;;;;;;11.20;10.27;;;23.00;86.40;;;;;;10468465;28;20233;-80
2022/07/24 03:04:04;;;;;;;9.90;9.20;;;22.90;87.10;;;;;;10484672;28;20222;-80
2022/07/24 03:09:08;;;;;;;11.80;10.87;;;22.90;87.60;;;;;;10451360;28;20268;-80
2022/07/24 03:14:10;;;;;;;11.97;10.87;;;22.90;87.40;;;;;;10450499;28;20665;-80
2022/07/24 03:19:12;;;;;;;11.07;10.17;;;22.80;87.60;;;;;;10480156;28;20253;-80
2022/07/24 03:24:15;;;;;;;11.27;10.37;;;22.80;88.10;;;;;;10422912;28;20237;-80
2022/07/24 03:29:17;;;;;;;9.53;8.37;;;22.80;87.60;;;;;;10441570;28;20272;-83
2022/07/24 03:34:19;;;;;;;11.20;10.30;;;22.70;87.70;;;;;;10460590;28;20224;-82
2022/07/24 03:39:23;;;;;;;11.27;10.47;;;22.80;87.10;;;;;;10434619;28;20226;-82
2022/07/24 03:44:25;;;;;;;12.07;10.90;;;22.70;87.70;;;;;;10438556;28;20201;-80
2022/07/24 03:49:27;;;;;;;11.03;10.10;;;22.60;87.80;;;;;;10442775;28;20757;-80
2022/07/24 03:54:30;;;;;;;11.90;11.00;;;22.60;88.50;;;;;;10440578;28;20655;-80
2022/07/24 03:59:33;;;;;;;11.07;10.37;;;22.60;88.80;;;;;;10460844;28;20229;-80
2022/07/24 04:04:35;;;;;;;12.03;11.23;;;22.60;88.30;;;;;;10441793;28;20203;-80
2022/07/24 04:09:38;;;;;;;11.77;10.83;;;22.60;88.50;;;;;;10430822;28;20271;-80
2022/07/24 04:14:40;;;;;;;11.93;11.07;;;22.60;89.00;;;;;;10458215;28;20225;-81
2022/07/24 04:19:42;;;;;;;12.17;11.00;;;22.60;89.60;;;;;;10466096;28;20316;-82
2022/07/24 04:24:46;;;;;;;11.63;10.70;;;22.60;88.10;;;;;;10464164;28;20189;-80
2022/07/24 04:29:48;;;;;;;11.13;10.23;;;22.60;89.60;;;;;;10447012;28;20716;-80
2022/07/24 04:34:50;;;;;;;11.53;10.50;;;22.60;89.50;;;;;;10434329;28;20700;-80
2022/07/24 04:39:53;;;;;;;11.60;10.80;;;22.60;89.90;;;;;;10459812;28;20228;-80
2022/07/24 04:44:55;;;;;;;13.40;12.20;;;22.60;90.00;;;;;;10464087;28;20201;-80
2022/07/24 04:49:58;;;;;;;12.20;11.20;;;22.60;90.10;;;;;;10444714;28;20667;-80
2022/07/24 04:55:01;;;;;;;12.10;11.10;;;22.70;90.20;;;;;;10452705;28;20257;-80
2022/07/24 05:00:06;;;;;;;11.40;10.60;;;22.70;90.00;;;;;;10437340;28;20247;-81
2022/07/24 05:05:09;;;;;;;12.20;11.00;;;22.70;90.50;;;;;;10436458;28;20711;-82
2022/07/24 05:10:12;;;;;;;12.60;11.60;;;22.80;90.70;;;;;;10424473;28;20253;-82
2022/07/24 05:15:14;;;;;;;11.03;10.23;;;22.80;90.50;;;;;;10421999;28;20236;-82
2022/07/24 05:20:16;;;;;;;10.70;9.90;;;22.80;90.50;;;;;;10440953;28;20217;-80
2022/07/24 05:25:20;;;;;;;11.23;10.53;;;22.90;90.70;;;;;;10437285;28;20317;-80
2022/07/24 05:30:22;;;;;;;11.90;11.00;;;22.90;90.80;;;;;;10434884;28;20600;-80
2022/07/24 05:35:24;;;;;;;12.67;11.57;;;22.90;90.50;;;;;;10427116;28;20216;-80
2022/07/24 05:40:28;;;;;;;12.60;11.60;;;23.00;91.10;;;;;;10440580;28;20249;-82
2022/07/24 05:45:30;;;;;;;11.87;11.00;;;23.10;91.00;;;;;;10420636;28;20201;-82
2022/07/24 05:50:32;;;;;;;11.53;10.63;;;23.20;90.50;;;;;;10431751;28;20256;-82
2022/07/24 05:55:36;;;;;;;11.43;10.63;;;23.20;90.50;;;;;;10457634;28;20223;-80
2022/07/24 06:00:38;;;;;;;11.93;11.03;;;23.30;90.40;;;;;;10459879;28;20236;-80
2022/07/24 06:05:40;;;;;;;12.77;11.77;;;23.40;90.70;;;;;;10448057;28;20219;-81
2022/07/24 06:10:43;;;;;;;12.57;11.57;;;23.40;90.60;;;;;;10452405;28;20217;-80
2022/07/24 06:15:46;;;;;;;12.80;11.80;;;23.50;90.60;;;;;;10465754;28;20577;-82
2022/07/24 06:20:48;;;;;;;11.90;11.00;;;23.60;90.50;;;;;;10460326;28;20224;-83
2022/07/24 06:25:51;;;;;;;12.70;11.60;;;23.70;90.70;;;;;;10440440;28;20788;-82
2022/07/24 06:30:53;;;;;;;11.70;10.80;;;23.70;90.00;;;;;;10428986;28;20214;-83
2022/07/24 06:35:55;;;;;;;11.90;11.00;;;23.80;90.00;;;;;;10437369;28;20614;-82
2022/07/24 06:40:59;;;;;;;12.60;11.50;;;24.00;90.10;;;;;;10435015;28;20228;-82
2022/07/24 06:46:01;;;;;;;11.47;10.50;;;24.20;89.40;;;;;;10429922;28;20297;-82
2022/07/24 06:51:03;;;;;;;11.57;10.67;;;24.30;87.40;;;;;;10427738;28;20272;-82
2022/07/24 06:56:08;;;;;;;11.30;10.20;;;24.50;87.90;;;;;;10451979;28;20199;-80
2022/07/24 07:01:10;;;;;;;11.77;10.90;;;24.70;88.80;;;;;;10504365;22;20297;-78
2022/07/24 07:06:12;;;;;;;12.10;11.20;;;24.90;88.30;;;;;;10492049;28;20743;-78
2022/07/24 07:11:15;;;;;;;13.70;12.57;;;25.10;87.60;;;;;;10490614;28;20255;-79
2022/07/24 07:16:17;;;;;;;13.53;12.53;;;25.30;87.00;;;;;;10492501;28;20192;-79
2022/07/24 07:21:19;;;;;;;13.43;12.33;;;25.60;87.00;;;;;;10492019;28;20244;-78
2022/07/24 07:26:23;;;;;;;13.30;12.20;;;25.90;86.50;;;;;;10497192;28;20204;-79
2022/07/24 07:31:26;;;;;;;13.10;12.10;;;26.10;86.60;;;;;;10494644;28;20381;-78
2022/07/24 07:36:28;;;;;;;13.53;12.40;;;26.40;85.70;;;;;;10495335;28;20196;-80
2022/07/24 07:41:31;;;;;;;13.20;12.20;;;26.60;85.70;;;;;;10498052;28;20222;-79
2022/07/24 07:46:33;;;;;;;12.57;11.67;;;26.80;84.70;;;;;;10498778;28;20627;-77
2022/07/24 07:51:36;;;;;;;12.30;11.50;;;27.00;84.50;;;;;;10498956;28;20657;-78
2022/07/24 07:56:39;;;;;;;12.63;11.47;;;27.30;83.40;;;;;;10497842;28;20643;-78
2022/07/24 08:01:41;;;;;;;11.47;10.43;;;27.60;80.80;;;;;;10497406;28;20227;-78
2022/07/24 08:06:43;;;;;;;10.70;9.90;;;27.80;80.30;;;;;;10500243;28;20630;-78
2022/07/24 08:11:47;;;;;;;11.73;10.73;;;28.00;79.10;;;;;;10496912;28;20719;-78
2022/07/24 08:16:49;;;;;;;10.83;9.93;;;28.30;78.80;;;;;;10498133;28;20581;-77
2022/07/24 08:21:51;;;;;;;10.40;9.60;;;28.50;76.80;;;;;;10498032;28;20907;-78
2022/07/24 08:26:54;;;;;;;10.73;9.80;;;28.80;76.50;;;;;;10500990;28;20228;-81
2022/07/24 08:31:56;;;;;;;10.07;9.27;;;29.10;75.30;;;;;;10503404;28;20505;-77
2022/07/24 08:36:59;;;;;;;10.63;9.93;;;29.30;73.40;;;;;;10496201;28;20607;-78
2022/07/24 08:42:02;;;;;;;9.30;8.60;;;29.60;73.20;;;;;;10499021;28;20635;-78
2022/07/24 08:47:06;;;;;;;8.83;8.23;;;30.10;71.70;;;;;;10494668;28;20220;-78
2022/07/24 08:52:09;;;;;;;10.47;9.47;;;30.50;69.60;;;;;;10495732;28;20729;-78
2022/07/24 08:57:12;;;;;;;8.27;7.57;;;30.90;68.60;;;;;;10498618;28;20193;-79
2022/07/24 09:02:14;;;;;;;8.20;7.50;;;31.30;66.70;;;;;;10500310;28;20227;-79
2022/07/24 09:07:19;;;;;;;9.10;8.50;;;31.70;64.90;;;;;;10501823;28;20258;-79
2022/07/24 09:12:23;;;;;;;8.73;7.97;;;32.10;63.50;;;;;;10501899;28;20710;-80
2022/07/24 09:17:25;;;;;;;8.27;7.67;;;32.60;62.00;;;;;;10503841;28;20204;-79
2022/07/24 09:22:36;;;;;;;9.50;8.80;;;33.00;60.80;;;;;;10499280;28;20216;-79
2022/07/24 09:27:42;;;;;;;8.83;8.23;;;33.30;60.70;;;;;;10499458;28;20682;-78
2022/07/24 09:32:52;;;;;;;8.90;8.20;;;33.60;59.70;;;;;;10498594;28;20289;-79
2022/07/24 09:37:55;;;;;;;9.33;8.43;;;34.00;59.00;;;;;;10499814;28;20199;-78
2022/07/24 09:43:20;;;;;;;9.63;8.93;;;34.20;58.20;;;;;;10500306;28;20285;-79
2022/07/24 09:48:23;;;;;;;8.40;7.80;;;33.80;58.10;;;;;;10498363;28;20223;-79
2022/07/24 09:53:28;;;;;;;8.47;7.87;;;33.20;58.30;;;;;;10501578;28;20303;-78
2022/07/24 09:58:34;;;;;;;7.97;7.47;;;32.70;59.00;;;;;;10499198;28;20227;-79
2022/07/24 10:03:39;;;;;;;9.10;8.50;;;32.40;59.70;;;;;;10490865;28;20219;-79
2022/07/24 10:08:43;;;;;;;9.07;8.47;;;32.10;59.20;;;;;;10492003;28;20316;-78
2022/07/24 10:13:47;;;;;;;8.67;7.97;;;31.80;59.80;;;;;;10493352;28;20335;-79
2022/07/24 10:18:51;;;;;;;8.70;8.00;;;31.50;61.10;;;;;;10492165;28;20228;-79
2022/07/24 10:24:13;;;;;;;9.37;8.77;;;31.40;62.20;;;;;;10495310;28;20204;-78
2022/07/24 10:29:18;;;;;;;9.50;8.90;;;31.30;62.60;;;;;;10491629;28;20428;-79
2022/07/24 10:34:30;;;;;;;9.67;8.90;;;31.00;63.50;;;;;;10486363;28;20220;-78
2022/07/24 10:39:42;;;;;;;8.80;8.20;;;30.90;61.50;;;;;;10491669;28;20228;-78
2022/07/24 10:44:45;;;;;;;8.83;8.03;;;30.60;61.90;;;;;;10491491;28;20197;-78
2022/07/24 10:49:49;;;;;;;9.40;8.50;;;30.40;61.40;;;;;;10470288;28;20221;-78
2022/07/24 10:55:26;;;;;;;8.57;7.97;;;30.10;63.00;;;;;;10491098;28;20255;-78
2022/07/24 11:00:34;;;;;;;9.40;8.63;;;29.80;62.70;;;;;;10491943;28;20229;-79
2022/07/24 11:05:38;;;;;;;10.67;9.53;;;29.70;62.50;;;;;;10490479;28;20686;-80
2022/07/24 11:10:47;;;;;;;12.40;11.40;;;29.50;61.90;;;;;;10496979;28;20242;-80
2022/07/24 11:16:17;;;;;;;8.93;8.20;;;29.40;64.00;;;;;;10491192;28;20591;-78
2022/07/24 11:21:28;;;;;;;9.07;8.40;;;29.40;63.80;;;;;;10503642;28;20735;-80
2022/07/24 11:26:46;;;;;;;9.60;8.70;;;29.60;62.00;;;;;;10505094;28;20200;-78
2022/07/24 11:31:52;;;;;;;9.47;8.83;;;29.60;64.50;;;;;;10497373;28;20607;-80
2022/07/24 11:36:55;;;;;;;8.90;8.30;;;29.60;63.00;;;;;;10478228;28;20641;-79
2022/07/24 11:41:59;;;;;;;9.23;8.43;;;29.60;63.90;;;;;;10489835;28;20704;-77
2022/07/24 11:47:08;;;;;;;8.67;8.07;;;29.70;63.30;;;;;;10491225;28;20661;-77
2022/07/24 11:52:16;;;;;;;9.33;8.63;;;29.70;63.10;;;;;;10491194;28;20689;-78
2022/07/24 11:57:27;;;;;;;9.13;8.53;;;29.60;64.80;;;;;;10490953;28;20294;-77
2022/07/24 12:02:31;;;;;;;9.27;8.57;;;29.70;63.70;;;;;;10491082;28;20232;-77
2022/07/24 12:07:33;;;;;;;10.47;9.10;;;29.80;62.90;;;;;;10490760;28;20213;-77
2022/07/24 12:12:37;;;;;;;9.07;8.47;;;29.90;62.80;;;;;;10495578;28;20220;-80
2022/07/24 12:17:56;;;;;;;8.80;8.10;;;30.00;63.80;;;;;;10503511;28;20215;-79
2022/07/24 12:23:00;;;;;;;9.57;8.77;;;30.00;61.40;;;;;;10495790;28;20417;-77
2022/07/24 12:28:04;;;;;;;8.40;7.90;;;29.90;61.80;;;;;;10486848;28;20205;-80
2022/07/24 12:33:11;;;;;;;9.60;8.80;;;29.80;62.10;;;;;;10500182;28;20209;-80
2022/07/24 12:38:24;;;;;;;14.87;13.67;;;29.80;61.20;;;;;;10502989;28;20189;-79
2022/07/24 12:43:28;;;;;;;9.67;8.97;;;29.60;62.50;;;;;;10498997;28;20192;-78
2022/07/24 12:48:31;;;;;;;8.43;7.83;;;29.50;62.20;;;;;;10493809;28;20250;-77
2022/07/24 12:53:35;;;;;;;9.60;9.00;;;29.40;62.20;;;;;;10496114;28;20216;-79
2022/07/24 12:59:06;;;;;;;8.70;8.20;;;29.40;61.40;;;;;;10497347;28;20239;-77
2022/07/24 13:04:11;;;;;;;10.20;9.30;;;29.50;61.40;;;;;;10494501;28;20220;-77
2022/07/24 13:09:14;;;;;;;7.97;7.50;;;29.50;59.40;;;;;;10494275;28;20220;-78
2022/07/24 13:14:17;;;;;;;8.90;8.10;;;29.70;59.20;;;;;;10495593;28;20228;-78
2022/07/24 13:19:22;;;;;;;9.13;8.53;;;29.60;63.50;;;;;;10495624;28;20312;-78
2022/07/24 13:24:24;;;;;;;9.27;8.57;;;29.60;62.70;;;;;;10498029;28;20239;-79
2022/07/24 13:29:27;;;;;;;9.80;9.17;;;29.70;60.30;;;;;;10502704;28;20269;-79
2022/07/24 13:34:31;;;;;;;10.17;9.37;;;29.80;62.40;;;;;;10500100;28;20224;-78
2022/07/24 13:39:33;;;;;;;10.50;9.60;;;29.80;61.40;;;;;;10493136;28;20235;-78
2022/07/24 13:44:35;;;;;;;10.00;9.27;;;29.80;62.80;;;;;;10494054;28;20192;-78
2022/07/24 13:49:38;;;;;;;10.00;9.20;;;29.80;60.30;;;;;;10491929;28;20226;-77
2022/07/24 13:54:41;;;;;;;8.67;8.10;;;29.80;59.10;;;;;;10493456;28;20757;-77
2022/07/24 13:59:43;;;;;;;9.40;8.80;;;29.80;60.50;;;;;;10492683;28;20953;-78
2022/07/24 14:04:46;;;;;;;9.83;9.13;;;29.80;60.80;;;;;;10492051;28;20200;-77
2022/07/24 14:09:48;;;;;;;9.10;8.50;;;29.70;59.90;;;;;;10491221;28;20244;-77
2022/07/24 14:14:50;;;;;;;9.33;8.57;;;29.80;63.30;;;;;;10486608;28;20220;-77
2022/07/24 14:19:54;;;;;;;9.20;8.60;;;29.70;61.20;;;;;;10488493;28;20217;-77
2022/07/24 14:24:56;;;;;;;9.67;8.97;;;29.60;59.40;;;;;;10491011;28;20196;-79
2022/07/24 14:29:58;;;;;;;8.90;8.30;;;29.60;61.10;;;;;;10492817;28;20252;-78
2022/07/24 14:35:05;;;;;;;11.13;10.27;;;29.50;59.70;;;;;;10489314;28;20216;-78
2022/07/24 14:40:09;;;;;;;10.07;9.37;;;;;;;;;;10497673;28;20281;-78
2022/07/24 14:45:11;;;;;;;9.50;8.90;;;29.50;61.30;;;;;;10498894;28;20199;-78
2022/07/24 14:50:15;;;;;;;9.87;9.23;;;29.40;64.00;;;;;;10502219;28;20602;-80
2022/07/24 14:55:17;;;;;;;10.57;9.77;;;29.30;65.70;;;;;;10513017;28;20239;-81
2022/07/24 15:00:19;;;;;;;10.87;10.17;;;29.20;65.70;;;;;;10509797;28;20238;-79
2022/07/24 15:05:22;;;;;;;11.00;10.20;;;29.20;65.30;;;;;;10491183;28;20250;-80
2022/07/24 15:10:33;;;;;;;10.23;9.53;;;29.20;61.20;;;;;;10512246;28;20240;-81
2022/07/24 15:15:38;;;;;;;9.70;8.10;;;29.10;65.20;;;;;;10518528;28;20220;-81
2022/07/24 15:20:42;;;;;;;9.70;9.10;;;29.00;65.20;;;;;;10516727;28;20239;-81
2022/07/24 15:25:44;;;;;;;10.20;9.60;;;29.00;63.10;;;;;;10503932;28;20189;-81
2022/07/24 15:30:46;;;;;;;10.03;9.20;;;29.00;59.30;;;;;;10507573;28;20224;-80
2022/07/24 15:35:50;;;;;;;10.60;9.90;;;29.10;58.90;;;;;;10512666;28;20295;-80
2022/07/24 15:40:52;;;;;;;9.63;9.03;;;29.10;58.50;;;;;;10511454;28;20285;-80
2022/07/24 15:45:54;;;;;;;9.90;9.17;;;29.10;59.70;;;;;;10510363;28;20188;-80
2022/07/24 15:50:57;;;;;;;9.60;9.00;;;29.10;59.30;;;;;;10511168;28;20558;-80
2022/07/24 15:55:59;;;;;;;11.20;10.50;;;29.10;64.10;;;;;;10498873;28;20216;-80
2022/07/24 16:01:02;;;;;;;10.10;9.40;;;29.00;64.40;;;;;;10506219;28;20220;-80
2022/07/24 16:06:05;;;;;;;10.73;10.03;;;28.90;62.50;;;;;;10506020;28;20208;-81
2022/07/24 16:11:08;;;;;;;8.93;8.33;;;28.90;65.00;;;;;;10505751;28;20216;-80
2022/07/24 16:16:10;;;;;;;10.60;9.90;;;28.80;66.50;;;;;;10498126;28;20220;-80
2022/07/24 16:21:14;;;;;;;9.73;9.10;;;28.70;64.60;;;;;;10505809;28;20322;-80
2022/07/24 16:26:16;;;;;;;9.50;8.90;;;28.70;62.70;;;;;;10503312;28;20690;-80
2022/07/24 16:31:18;;;;;;;9.83;8.93;;;28.80;59.40;;;;;;10501571;28;20734;-81
2022/07/24 16:36:22;;;;;;;10.60;9.80;;;28.80;61.70;;;;;;10500281;28;20213;-81
2022/07/24 16:41:24;;;;;;;10.23;9.47;;;28.80;63.70;;;;;;10502272;28;20235;-81
2022/07/24 16:46:26;;;;;;;10.27;9.40;;;28.80;65.60;;;;;;10511693;28;20260;-81
2022/07/24 16:51:41;;;;;;;9.80;9.03;;;28.80;61.60;;;;;;10505316;28;20235;-81
2022/07/24 16:56:43;;;;;;;9.33;8.73;;;28.80;59.40;;;;;;10503936;28;20276;-81
2022/07/24 17:01:45;;;;;;;10.23;9.43;;;28.80;60.40;;;;;;10495088;28;20646;-80
2022/07/24 17:06:49;;;;;;;9.50;8.67;;;28.90;60.50;;;;;;10503201;28;20193;-80
2022/07/24 17:11:54;;;;;;;10.50;9.70;;;28.90;61.40;;;;;;10500181;28;20357;-80
2022/07/24 17:16:56;;;;;;;10.70;9.80;;;28.90;62.40;;;;;;10497644;28;20212;-80
2022/07/24 17:22:15;;;;;;;10.00;9.40;;;28.90;64.30;;;;;;10499030;28;20219;-81
2022/07/24 17:27:18;;;;;;;10.90;10.10;;;28.80;63.80;;;;;;10501743;28;20214;-82
2022/07/24 17:32:20;;;;;;;10.93;10.13;;;28.70;64.30;;;;;;10502833;28;20216;-82
2022/07/24 17:37:24;;;;;;;15.13;13.60;;;28.60;67.50;;;;;;10501554;28;20216;-82
2022/07/24 17:42:26;;;;;;;14.30;13.10;;;28.50;69.70;;;;;;10499426;28;20220;-81
2022/07/24 17:47:28;;;;;;;11.30;10.60;;;28.40;70.40;;;;;;10503965;28;20200;-81
2022/07/24 17:52:32;;;;;;;11.40;10.57;;;28.30;70.60;;;;;;10506740;28;20230;-82
2022/07/24 17:57:34;;;;;;;12.03;11.00;;;28.20;68.30;;;;;;10494764;28;20239;-80
2022/07/24 18:02:36;;;;;;;12.00;11.10;;;28.20;70.10;;;;;;10495044;28;20248;-81
2022/07/24 18:07:40;;;;;;;11.13;10.40;;;28.10;72.20;;;;;;10498135;28;20192;-80
2022/07/24 18:12:43;;;;;;;10.97;10.17;;;28.10;70.10;;;;;;10496287;28;20244;-80
2022/07/24 18:17:45;;;;;;;10.50;9.90;;;28.00;70.80;;;;;;10490119;28;20303;-80
2022/07/24 18:22:49;;;;;;;9.70;9.10;;;28.00;69.60;;;;;;10500818;28;20276;-80
2022/07/24 18:27:51;;;;;;;10.20;9.40;;;28.00;70.40;;;;;;10502904;28;20200;-80
2022/07/24 18:32:53;;;;;;;10.90;10.10;;;28.00;70.10;;;;;;10503397;28;20227;-79
2022/07/24 18:37:56;;;;;;;10.37;9.73;;;28.00;70.80;;;;;;10512456;28;20220;-79
2022/07/24 18:42:59;;;;;;;10.93;10.13;;;28.00;71.30;;;;;;10503365;28;20260;-79
2022/07/24 18:48:01;;;;;;;12.33;11.13;;;28.00;71.60;;;;;;10494179;28;20512;-79
2022/07/24 18:53:05;;;;;;;10.70;9.90;;;28.00;71.00;;;;;;10497650;28;20204;-79
2022/07/24 18:58:07;;;;;;;11.17;10.47;;;28.00;70.60;;;;;;10496679;28;20220;-81
2022/07/24 19:03:11;;;;;;;11.23;10.53;;;27.90;71.50;;;;;;10496318;28;20228;-81
2022/07/24 19:08:14;;;;;;;11.10;10.20;;;27.80;73.10;;;;;;10496725;28;20707;-81
2022/07/24 19:13:17;;;;;;;12.67;11.73;;;27.70;72.30;;;;;;10497578;28;21006;-82
2022/07/24 19:18:19;;;;;;;11.63;10.73;;;27.50;72.80;;;;;;10497195;28;20240;-81
2022/07/24 19:23:22;;;;;;;11.40;10.60;;;27.50;72.90;;;;;;10498012;28;20284;-80
2022/07/24 19:28:24;;;;;;;11.50;10.77;;;27.30;72.70;;;;;;10488429;28;20642;-80
2022/07/24 19:33:34;;;;;;;11.80;11.00;;;27.20;72.70;;;;;;10495506;28;20196;-80
2022/07/24 19:38:37;;;;;;;11.40;10.60;;;27.10;73.20;;;;;;10497333;28;20220;-80
2022/07/24 19:43:40;;;;;;;11.87;10.97;;;27.00;73.60;;;;;;10503548;28;20216;-80
2022/07/24 19:48:42;;;;;;;14.20;12.80;;;26.90;73.50;;;;;;10503324;28;20243;-80
2022/07/24 19:53:46;;;;;;;11.40;10.60;;;26.90;74.20;;;;;;10503035;28;20287;-79
2022/07/24 19:58:48;;;;;;;10.37;9.73;;;26.80;74.90;;;;;;10484679;28;20240;-79
2022/07/24 20:03:50;;;;;;;11.47;10.57;;;26.70;74.80;;;;;;10495225;28;20197;-80
2022/07/24 20:09:15;;;;;;;11.63;10.83;;;26.70;74.50;;;;;;10477602;28;20266;-83
2022/07/24 20:14:18;;;;;;;12.07;10.97;;;26.60;74.20;;;;;;10483552;28;20212;-80
2022/07/24 20:19:20;;;;;;;10.97;10.13;;;26.50;75.00;;;;;;10498798;28;20274;-80
2022/07/24 20:24:24;;;;;;;10.83;10.03;;;26.50;74.60;;;;;;10495309;28;20232;-80
2022/07/24 20:29:26;;;;;;;11.97;11.07;;;26.40;75.00;;;;;;10493927;28;20224;-79
2022/07/24 20:34:29;;;;;;;11.93;11.03;;;26.40;74.90;;;;;;10491680;28;20304;-80
2022/07/24 20:39:32;;;;;;;11.77;10.77;;;26.40;75.10;;;;;;10486709;28;20673;-80
2022/07/24 20:44:36;;;;;;;12.23;11.37;;;26.40;76.40;;;;;;10489909;28;20660;-80
2022/07/24 20:49:38;;;;;;;11.83;11.03;;;26.30;76.40;;;;;;10489379;28;20243;-80
2022/07/24 20:54:42;;;;;;;13.07;12.20;;;26.30;76.40;;;;;;10478494;28;20220;-79
2022/07/24 20:59:49;;;;;;;11.63;10.73;;;26.20;76.70;;;;;;10495977;28;20240;-80
2022/07/24 21:04:51;;;;;;;12.87;11.57;;;26.20;76.10;;;;;;10485837;28;20279;-80
2022/07/24 21:09:57;;;;;;;11.23;10.40;;;26.10;76.00;;;;;;10497583;28;20219;-80
2022/07/24 21:14:59;;;;;;;10.43;9.63;;;26.00;76.70;;;;;;10494375;28;20239;-79
2022/07/24 21:20:02;;;;;;;11.40;10.60;;;26.00;76.70;;;;;;10496404;28;20247;-80
2022/07/24 21:25:06;;;;;;;11.57;10.77;;;26.00;76.50;;;;;;10476222;28;20208;-81
2022/07/24 21:30:11;;;;;;;11.80;10.90;;;25.90;76.50;;;;;;10495142;28;20212;-80
2022/07/24 21:35:13;;;;;;;11.80;10.70;;;25.90;76.60;;;;;;10497790;28;20265;-80
2022/07/24 21:40:17;;;;;;;11.73;10.83;;;25.80;77.10;;;;;;10493323;28;20223;-80
2022/07/24 21:45:19;;;;;;;12.20;11.30;;;25.80;80.40;;;;;;10494202;28;20204;-80
2022/07/24 21:50:21;;;;;;;11.33;10.50;;;25.80;82.80;;;;;;10496416;28;20247;-80
2022/07/24 21:55:25;;;;;;;12.53;11.60;;;25.80;79.90;;;;;;10497474;28;20220;-81
2022/07/24 22:00:35;;;;;;;11.33;10.53;;;25.70;78.60;;;;;;10491457;28;20220;-81
2022/07/24 22:05:38;;;;;;;11.43;10.63;;;25.70;76.90;;;;;;10494952;28;20283;-80
2022/07/24 22:10:42;;;;;;;11.90;11.10;;;25.70;77.60;;;;;;10500092;28;20794;-80
2022/07/24 22:15:44;;;;;;;12.40;11.43;;;25.60;77.80;;;;;;10492123;28;20691;-80
2022/07/24 22:20:46;;;;;;;11.40;10.60;;;25.50;78.30;;;;;;10476594;28;20216;-80
2022/07/24 22:25:49;;;;;;;12.67;11.73;;;25.50;78.50;;;;;;10490179;28;20601;-80
2022/07/24 22:30:52;;;;;;;13.00;12.00;;;25.50;78.70;;;;;;10499039;28;20822;-80
2022/07/24 22:35:54;;;;;;;12.80;11.90;;;25.40;79.10;;;;;;10467033;28;20216;-80
2022/07/24 22:40:58;;;;;;;12.30;11.30;;;25.30;80.40;;;;;;10493295;28;20296;-81
2022/07/24 22:46:02;;;;;;;13.07;12.10;;;25.30;79.50;;;;;;10492169;28;20613;-80
2022/07/24 22:51:04;;;;;;;12.87;11.87;;;25.20;80.30;;;;;;10490231;28;20291;-81
2022/07/24 22:56:09;;;;;;;12.73;11.77;;;25.20;79.70;;;;;;10491350;28;20220;-80
2022/07/24 23:01:11;;;;;;;12.87;11.97;;;25.20;80.00;;;;;;10476050;28;20235;-81
2022/07/24 23:06:13;;;;;;;11.20;10.50;;;25.10;80.40;;;;;;10497702;28;20727;-80
2022/07/24 23:11:17;;;;;;;12.43;11.53;;;25.10;80.30;;;;;;10490353;28;20220;-81
2022/07/24 23:16:19;;;;;;;12.50;11.50;;;25.10;80.50;;;;;;10498366;28;20227;-80
2022/07/24 23:21:21;;;;;;;12.47;11.17;;;24.90;81.80;;;;;;10499052;28;20307;-80
2022/07/24 23:26:24;;;;;;;12.90;12.00;;;24.80;81.70;;;;;;10499124;28;20850;-80
2022/07/24 23:31:27;;;;;;;12.70;11.80;;;24.80;82.50;;;;;;10497068;28;20732;-80
2022/07/24 23:36:29;;;;;;;13.00;11.80;;;24.70;82.70;;;;;;10500674;28;20265;-81
2022/07/24 23:41:32;;;;;;;13.10;11.77;;;24.70;82.40;;;;;;10499841;28;20227;-80
2022/07/24 23:46:35;;;;;;;12.27;11.37;;;24.70;82.10;;;;;;10506066;28;20231;-81
2022/07/24 23:51:37;;;;;;;11.70;10.90;;;24.70;82.50;;;;;;10500531;28;20224;-80
2022/07/24 23:56:40;;;;;;;11.83;11.03;;;24.70;82.40;;;;;;10502570;28;20228;-80
